sensor_id;sensor_type;location;lat;lon;timestamp;pressure;altitude;pressure_sealevel;temperature;humidity
49947;BME280;35839;48.662;13.300;2022-08-21T05:05:14;97297.72;;;16.69;100.00
49947;BME280;35839;48.662;13.300;2022-08-21T05:07:42;97302.38;;;16.67;100.00
49947;BME280;35839;48.662;13.300;2022-08-21T05:10:09;97308.66;;;16.66;100.00
49947;BME280;35839;48.662;13.300;2022-08-21T05:12:34;97308.13;;;16.77;100.00
49947;BME280;35839;48.662;13.300;2022-08-21T05:15:00;97316.25;;;16.76;100.00
49947;BME280;35839;48.662;13.300;2022-08-21T05:17:27;97313.38;;;16.71;100.00
49947;BME280;35839;48.662;13.300;2022-08-21T05:19:52;97319.66;;;16.70;100.00
49947;BME280;35839;48.662;13.300;2022-08-21T05:22:22;97316.16;;;16.84;100.00
49947;BME280;35839;48.662;13.300;2022-08-21T05:24:49;97322.25;;;16.84;100.00
49947;BME280;35839;48.662;13.300;2022-08-21T05:27:15;97319.72;;;16.76;100.00
49947;BME280;35839;48.662;13.300;2022-08-21T05:29:41;97321.75;;;16.74;100.00
49947;BME280;35839;48.662;13.300;2022-08-21T05:32:11;97319.72;;;16.76;100.00
49947;BME280;35839;48.662;13.300;2022-08-21T05:34:37;97321.34;;;16.77;100.00
49947;BME280;35839;48.662;13.300;2022-08-21T05:37:03;97326.50;;;16.79;100.00
49947;BME280;35839;48.662;13.300;2022-08-21T05:39:29;97326.09;;;16.82;100.00
49947;BME280;35839;48.662;13.300;2022-08-21T05:41:54;97332.31;;;16.96;100.00
49947;BME280;35839;48.662;13.300;2022-08-21T05:44:19;97338.00;;;16.93;100.00
49947;BME280;35839;48.662;13.300;2022-08-21T05:46:45;97340.44;;;16.94;100.00
49947;BME280;35839;48.662;13.300;2022-08-21T05:49:11;97340.94;;;17.04;100.00
49947;BME280;35839;48.662;13.300;2022-08-21T05:51:40;97342.38;;;17.07;100.00
49947;BME280;35839;48.662;13.300;2022-08-21T05:54:05;97338.94;;;17.13;100.00
49947;BME280;35839;48.662;13.300;2022-08-21T05:56:31;97339.03;;;17.26;100.00
49947;BME280;35839;48.662;13.300;2022-08-21T05:58:57;97333.41;;;17.36;100.00
49947;BME280;35839;48.662;13.300;2022-08-21T06:01:23;97342.50;;;17.27;100.00
49947;BME280;35839;48.662;13.300;2022-08-21T06:03:48;97340.03;;;17.19;100.00
49947;BME280;35839;48.662;13.300;2022-08-21T06:06:13;97339.22;;;17.18;100.00
49947;BME280;35839;48.662;13.300;2022-08-21T06:08:39;97337.03;;;17.28;100.00
49947;BME280;35839;48.662;13.300;2022-08-21T06:11:05;97342.56;;;17.34;100.00
49947;BME280;35839;48.662;13.300;2022-08-21T06:13:31;97339.28;;;17.32;100.00
49947;BME280;35839;48.662;13.300;2022-08-21T06:16:13;97350.84;;;17.24;100.00
49947;BME280;35839;48.662;13.300;2022-08-21T06:18:39;97338.28;;;17.33;100.00
49947;BME280;35839;48.662;13.300;2022-08-21T06:21:05;97344.84;;;17.43;100.00
49947;BME280;35839;48.662;13.300;2022-08-21T06:23:31;97344.09;;;17.49;100.00
49947;BME280;35839;48.662;13.300;2022-08-21T06:25:57;97343.94;;;17.58;100.00
49947;BME280;35839;48.662;13.300;2022-08-21T06:28:22;97346.63;;;17.36;100.00
49947;BME280;35839;48.662;13.300;2022-08-21T06:30:47;97340.75;;;17.41;100.00
49947;BME280;35839;48.662;13.300;2022-08-21T06:33:13;97352.78;;;17.37;100.00
49947;BME280;35839;48.662;13.300;2022-08-21T06:35:39;97349.28;;;17.36;100.00
49947;BME280;35839;48.662;13.300;2022-08-21T06:38:04;97341.38;;;17.43;100.00
49947;BME280;35839;48.662;13.300;2022-08-21T06:40:31;97346.91;;;17.48;100.00
49947;BME280;35839;48.662;13.300;2022-08-21T06:42:57;97345.72;;;17.51;100.00
49947;BME280;35839;48.662;13.300;2022-08-21T06:45:23;97335.56;;;17.54;100.00
49947;BME280;35839;48.662;13.300;2022-08-21T06:47:49;97341.75;;;17.68;100.00
49947;BME280;35839;48.662;13.300;2022-08-21T06:50:14;97339.91;;;17.68;100.00
49947;BME280;35839;48.662;13.300;2022-08-21T06:52:40;97338.66;;;17.64;100.00
49947;BME280;35839;48.662;13.300;2022-08-21T06:55:07;97332.28;;;17.52;100.00
49947;BME280;35839;48.662;13.300;2022-08-21T06:57:34;97329.63;;;17.52;100.00
49947;BME280;35839;48.662;13.300;2022-08-21T06:59:59;97333.59;;;17.69;100.00
49947;BME280;35839;48.662;13.300;2022-08-21T07:02:24;97327.88;;;17.66;100.00
49947;BME280;35839;48.662;13.300;2022-08-21T07:04:50;97331.06;;;17.89;100.00
49947;BME280;35839;48.662;13.300;2022-08-21T07:07:16;97330.66;;;17.86;100.00
49947;BME280;35839;48.662;13.300;2022-08-21T07:09:41;97332.00;;;17.75;100.00
49947;BME280;35839;48.662;13.300;2022-08-21T07:12:07;97325.16;;;17.87;100.00
49947;BME280;35839;48.662;13.300;2022-08-21T07:14:32;97332.91;;;17.89;100.00
49947;BME280;35839;48.662;13.300;2022-08-21T07:16:58;97329.78;;;17.79;100.00
49947;BME280;35839;48.662;13.300;2022-08-21T07:19:23;97338.94;;;17.76;100.00
49947;BME280;35839;48.662;13.300;2022-08-21T07:21:49;97335.03;;;17.72;100.00
49947;BME280;35839;48.662;13.300;2022-08-21T07:24:14;97333.34;;;17.93;100.00
49947;BME280;35839;48.662;13.300;2022-08-21T07:26:40;97341.78;;;17.75;100.00
49947;BME280;35839;48.662;13.300;2022-08-21T07:29:05;97339.31;;;17.73;100.00
49947;BME280;35839;48.662;13.300;2022-08-21T07:31:31;97336.06;;;17.78;100.00
49947;BME280;35839;48.662;13.300;2022-08-21T07:33:57;97344.34;;;17.96;100.00
49947;BME280;35839;48.662;13.300;2022-08-21T07:36:23;97342.72;;;18.02;100.00
49947;BME280;35839;48.662;13.300;2022-08-21T07:38:48;97342.22;;;18.33;100.00
49947;BME280;35839;48.662;13.300;2022-08-21T07:41:17;97332.44;;;18.40;100.00
49947;BME280;35839;48.662;13.300;2022-08-21T07:43:45;97337.50;;;18.22;100.00
49947;BME280;35839;48.662;13.300;2022-08-21T07:46:11;97334.28;;;18.33;100.00
49947;BME280;35839;48.662;13.300;2022-08-21T07:48:37;97336.34;;;18.51;100.00
49947;BME280;35839;48.662;13.300;2022-08-21T07:51:07;97343.72;;;18.56;100.00
49947;BME280;35839;48.662;13.300;2022-08-21T07:53:34;97341.63;;;18.44;100.00
49947;BME280;35839;48.662;13.300;2022-08-21T07:55:59;97340.84;;;18.64;100.00
49947;BME280;35839;48.662;13.300;2022-08-21T07:58:25;97344.53;;;18.76;100.00
49947;BME280;35839;48.662;13.300;2022-08-21T08:00:50;97336.41;;;18.84;100.00
49947;BME280;35839;48.662;13.300;2022-08-21T08:03:16;97330.66;;;18.61;100.00
49947;BME280;35839;48.662;13.300;2022-08-21T08:05:42;97338.38;;;18.49;100.00
49947;BME280;35839;48.662;13.300;2022-08-21T08:08:08;97329.00;;;18.53;100.00
49947;BME280;35839;48.662;13.300;2022-08-21T08:10:33;97344.50;;;18.49;100.00
49947;BME280;35839;48.662;13.300;2022-08-21T08:13:00;97339.25;;;18.83;100.00
49947;BME280;35839;48.662;13.300;2022-08-21T08:15:27;97338.47;;;18.95;100.00
49947;BME280;35839;48.662;13.300;2022-08-21T08:17:52;97333.16;;;18.95;100.00
49947;BME280;35839;48.662;13.300;2022-08-21T08:20:19;97333.13;;;19.15;100.00
49947;BME280;35839;48.662;13.300;2022-08-21T08:22:46;97330.69;;;18.81;100.00
49947;BME280;35839;48.662;13.300;2022-08-21T08:25:12;97336.00;;;19.01;100.00
49947;BME280;35839;48.662;13.300;2022-08-21T08:27:39;97344.78;;;19.14;100.00
49947;BME280;35839;48.662;13.300;2022-08-21T08:30:06;97344.53;;;19.43;100.00
49947;BME280;35839;48.662;13.300;2022-08-21T08:32:32;97345.34;;;19.43;100.00
49947;BME280;35839;48.662;13.300;2022-08-21T08:34:58;97342.72;;;18.97;100.00
49947;BME280;35839;48.662;13.300;2022-08-21T08:37:24;97342.94;;;18.95;100.00
49947;BME280;35839;48.662;13.300;2022-08-21T08:39:50;97334.13;;;19.34;100.00
49947;BME280;35839;48.662;13.300;2022-08-21T08:42:25;97338.00;;;19.38;100.00
49947;BME280;35839;48.662;13.300;2022-08-21T08:44:59;97343.91;;;19.54;100.00
49947;BME280;35839;48.662;13.300;2022-08-21T08:47:26;97347.00;;;19.37;100.00
49947;BME280;35839;48.662;13.300;2022-08-21T08:52:35;97344.94;;;20.11;100.00
49947;BME280;35839;48.662;13.300;2022-08-21T08:57:32;97339.44;;;20.13;100.00
49947;BME280;35839;48.662;13.300;2022-08-21T09:00:05;97341.16;;;19.87;100.00
49947;BME280;35839;48.662;13.300;2022-08-21T09:02:31;97340.88;;;20.02;100.00
49947;BME280;35839;48.662;13.300;2022-08-21T09:04:59;97337.78;;;20.57;100.00
49947;BME280;35839;48.662;13.300;2022-08-21T09:11:01;97344.03;;;20.31;100.00
49947;BME280;35839;48.662;13.300;2022-08-21T09:21:47;97341.50;;;20.81;100.00
49947;BME280;35839;48.662;13.300;2022-08-21T09:27:16;97328.69;;;20.96;100.00
49947;BME280;35839;48.662;13.300;2022-08-21T09:29:45;97331.41;;;21.15;100.00
49947;BME280;35839;48.662;13.300;2022-08-21T09:32:26;97324.94;;;21.04;100.00
49947;BME280;35839;48.662;13.300;2022-08-21T09:35:12;97332.84;;;21.11;100.00
49947;BME280;35839;48.662;13.300;2022-08-21T09:38:00;97326.06;;;21.15;100.00
49947;BME280;35839;48.662;13.300;2022-08-21T09:40:45;97330.38;;;21.59;100.00
49947;BME280;35839;48.662;13.300;2022-08-21T09:45:38;97329.38;;;21.91;100.00
49947;BME280;35839;48.662;13.300;2022-08-21T09:48:18;97333.69;;;22.10;100.00
49947;BME280;35839;48.662;13.300;2022-08-21T09:50:44;97332.16;;;21.47;100.00
49947;BME280;35839;48.662;13.300;2022-08-21T09:53:18;97328.59;;;21.53;100.00
49947;BME280;35839;48.662;13.300;2022-08-21T09:55:56;97320.13;;;21.93;100.00
49947;BME280;35839;48.662;13.300;2022-08-21T09:58:43;97324.72;;;22.04;100.00
49947;BME280;35839;48.662;13.300;2022-08-21T10:01:27;97320.75;;;21.77;100.00
49947;BME280;35839;48.662;13.300;2022-08-21T10:04:09;97311.16;;;21.07;100.00
49947;BME280;35839;48.662;13.300;2022-08-21T10:06:35;97311.72;;;21.16;100.00
49947;BME280;35839;48.662;13.300;2022-08-21T10:09:14;97301.13;;;21.71;100.00
49947;BME280;35839;48.662;13.300;2022-08-21T10:11:48;97309.69;;;22.10;100.00
49947;BME280;35839;48.662;13.300;2022-08-21T10:17:04;97305.50;;;22.33;100.00
49947;BME280;35839;48.662;13.300;2022-08-21T10:19:44;97308.81;;;21.79;100.00
49947;BME280;35839;48.662;13.300;2022-08-21T10:22:31;97309.41;;;21.81;100.00
49947;BME280;35839;48.662;13.300;2022-08-21T10:25:25;97312.00;;;21.88;100.00
49947;BME280;35839;48.662;13.300;2022-08-21T10:28:37;97308.81;;;22.58;100.00
49947;BME280;35839;48.662;13.300;2022-08-21T10:39:34;97303.66;;;22.33;100.00
49947;BME280;35839;48.662;13.300;2022-08-21T10:42:23;97300.84;;;22.82;100.00
49947;BME280;35839;48.662;13.300;2022-08-21T10:45:13;97292.53;;;23.13;100.00
49947;BME280;35839;48.662;13.300;2022-08-21T10:47:54;97293.22;;;23.32;100.00
49947;BME280;35839;48.662;13.300;2022-08-21T10:50:42;97288.56;;;23.40;99.08
49947;BME280;35839;48.662;13.300;2022-08-21T10:55:59;97291.81;;;23.53;98.96
49947;BME280;35839;48.662;13.300;2022-08-21T10:58:49;97289.28;;;23.00;100.00
49947;BME280;35839;48.662;13.300;2022-08-21T11:01:33;97277.06;;;22.92;100.00
49947;BME280;35839;48.662;13.300;2022-08-21T11:04:16;97282.31;;;23.34;99.59
49947;BME280;35839;48.662;13.300;2022-08-21T11:06:52;97276.34;;;23.55;100.00
49947;BME280;35839;48.662;13.300;2022-08-21T11:09:21;97278.50;;;23.18;100.00
49947;BME280;35839;48.662;13.300;2022-08-21T11:11:58;97282.41;;;22.92;100.00
49947;BME280;35839;48.662;13.300;2022-08-21T11:17:07;97272.50;;;23.63;96.65
49947;BME280;35839;48.662;13.300;2022-08-21T11:19:59;97263.19;;;24.35;94.10
49947;BME280;35839;48.662;13.300;2022-08-21T11:22:40;97271.91;;;23.61;94.11
49947;BME280;35839;48.662;13.300;2022-08-21T11:25:21;97262.34;;;24.17;90.24
49947;BME280;35839;48.662;13.300;2022-08-21T11:27:56;97251.41;;;23.90;92.91
49947;BME280;35839;48.662;13.300;2022-08-21T11:30:28;97259.56;;;24.41;90.11
49947;BME280;35839;48.662;13.300;2022-08-21T11:35:53;97245.16;;;24.76;84.00
49947;BME280;35839;48.662;13.300;2022-08-21T11:38:28;97249.19;;;23.99;82.62
49947;BME280;35839;48.662;13.300;2022-08-21T11:43:47;97246.31;;;24.34;79.10
49947;BME280;35839;48.662;13.300;2022-08-21T11:56:41;97244.53;;;23.42;83.97
49947;BME280;35839;48.662;13.300;2022-08-21T11:59:17;97233.00;;;23.01;85.13
49947;BME280;35839;48.662;13.300;2022-08-21T12:01:48;97229.47;;;22.89;85.62
49947;BME280;35839;48.662;13.300;2022-08-21T12:06:41;97226.00;;;22.77;89.52
49947;BME280;35839;48.662;13.300;2022-08-21T12:09:10;97231.31;;;22.77;89.84
49947;BME280;35839;48.662;13.300;2022-08-21T12:11:48;97233.50;;;22.14;91.07
49947;BME280;35839;48.662;13.300;2022-08-21T12:14:16;97236.19;;;22.14;92.29
49947;BME280;35839;48.662;13.300;2022-08-21T12:16:48;97230.41;;;22.17;90.24
49947;BME280;35839;48.662;13.300;2022-08-21T12:26:54;97233.59;;;22.38;92.51
49947;BME280;35839;48.662;13.300;2022-08-21T12:29:36;97244.72;;;22.35;98.38
49947;BME280;35839;48.662;13.300;2022-08-21T12:32:03;97243.50;;;21.88;100.00
49947;BME280;35839;48.662;13.300;2022-08-21T12:34:40;97235.16;;;21.85;100.00
49947;BME280;35839;48.662;13.300;2022-08-21T12:39:57;97231.81;;;21.89;100.00
49947;BME280;35839;48.662;13.300;2022-08-21T12:42:33;97226.53;;;22.01;100.00
49947;BME280;35839;48.662;13.300;2022-08-21T12:45:17;97232.09;;;22.12;100.00
49947;BME280;35839;48.662;13.300;2022-08-21T12:47:47;97229.06;;;22.26;100.00
49947;BME280;35839;48.662;13.300;2022-08-21T12:50:19;97217.34;;;22.27;100.00
49947;BME280;35839;48.662;13.300;2022-08-21T12:52:57;97206.81;;;22.33;100.00
49947;BME280;35839;48.662;13.300;2022-08-21T12:55:31;97216.19;;;22.35;96.22
49947;BME280;35839;48.662;13.300;2022-08-21T12:57:57;97214.56;;;22.22;94.54
49947;BME280;35839;48.662;13.300;2022-08-21T13:00:24;97218.31;;;22.03;92.64
49947;BME280;35839;48.662;13.300;2022-08-21T13:02:52;97212.53;;;21.76;98.04
49947;BME280;35839;48.662;13.300;2022-08-21T13:05:28;97208.88;;;21.70;94.97
49947;BME280;35839;48.662;13.300;2022-08-21T13:07:54;97210.75;;;21.70;97.63
49947;BME280;35839;48.662;13.300;2022-08-21T13:10:26;97196.91;;;22.21;100.00
49947;BME280;35839;48.662;13.300;2022-08-21T13:12:58;97203.25;;;22.08;94.17
49947;BME280;35839;48.662;13.300;2022-08-21T13:15:39;97200.09;;;22.00;92.39
49947;BME280;35839;48.662;13.300;2022-08-21T13:18:05;97195.94;;;22.04;92.60
49947;BME280;35839;48.662;13.300;2022-08-21T13:20:36;97208.16;;;21.93;88.05
49947;BME280;35839;48.662;13.300;2022-08-21T13:23:16;97215.06;;;22.01;92.11
49947;BME280;35839;48.662;13.300;2022-08-21T13:25:43;97216.75;;;21.95;100.00
49947;BME280;35839;48.662;13.300;2022-08-21T13:28:10;97212.97;;;21.73;100.00
49947;BME280;35839;48.662;13.300;2022-08-21T13:30:52;97208.59;;;21.78;93.73
49947;BME280;35839;48.662;13.300;2022-08-21T13:33:24;97197.41;;;22.00;91.72
49947;BME280;35839;48.662;13.300;2022-08-21T13:38:24;97189.31;;;22.37;85.96
49947;BME280;35839;48.662;13.300;2022-08-21T13:40:57;97196.75;;;22.58;89.30
49947;BME280;35839;48.662;13.300;2022-08-21T13:43:31;97197.91;;;23.09;91.88
49947;BME280;35839;48.662;13.300;2022-08-21T13:45:58;97191.00;;;23.37;86.29
49947;BME280;35839;48.662;13.300;2022-08-21T13:48:26;97195.81;;;23.11;84.09
49947;BME280;35839;48.662;13.300;2022-08-21T13:50:53;97196.88;;;22.87;86.57
49947;BME280;35839;48.662;13.300;2022-08-21T13:55:51;97207.66;;;23.16;85.50
49947;BME280;35839;48.662;13.300;2022-08-21T13:58:31;97205.09;;;22.97;88.22
49947;BME280;35839;48.662;13.300;2022-08-21T14:00:59;97212.31;;;23.08;87.36
49947;BME280;35839;48.662;13.300;2022-08-21T14:03:41;97202.91;;;23.18;88.04
49947;BME280;35839;48.662;13.300;2022-08-21T14:06:20;97208.94;;;23.13;85.28
49947;BME280;35839;48.662;13.300;2022-08-21T14:08:58;97205.81;;;23.04;87.32
49947;BME280;35839;48.662;13.300;2022-08-21T14:11:25;97215.69;;;22.80;89.14
49947;BME280;35839;48.662;13.300;2022-08-21T14:16:43;97205.91;;;22.98;84.26
49947;BME280;35839;48.662;13.300;2022-08-21T14:21:41;97210.22;;;22.87;89.58
49947;BME280;35839;48.662;13.300;2022-08-21T14:24:29;97208.56;;;22.39;86.32
49947;BME280;35839;48.662;13.300;2022-08-21T14:27:03;97195.09;;;22.34;87.25
49947;BME280;35839;48.662;13.300;2022-08-21T14:29:37;97204.16;;;22.02;83.56
49947;BME280;35839;48.662;13.300;2022-08-21T14:32:20;97201.72;;;22.01;85.44
49947;BME280;35839;48.662;13.300;2022-08-21T14:34:46;97198.91;;;21.96;85.59
49947;BME280;35839;48.662;13.300;2022-08-21T14:37:12;97200.09;;;21.70;84.04
49947;BME280;35839;48.662;13.300;2022-08-21T14:39:38;97189.97;;;21.60;84.04
49947;BME280;35839;48.662;13.300;2022-08-21T14:42:04;97185.84;;;21.64;82.30
49947;BME280;35839;48.662;13.300;2022-08-21T14:44:29;97176.06;;;21.58;84.58
49947;BME280;35839;48.662;13.300;2022-08-21T14:46:56;97183.41;;;21.44;83.56
49947;BME280;35839;48.662;13.300;2022-08-21T14:49:27;97179.28;;;21.48;85.29
49947;BME280;35839;48.662;13.300;2022-08-21T14:51:53;97179.13;;;21.43;83.89
49947;BME280;35839;48.662;13.300;2022-08-21T14:54:23;97181.78;;;21.43;83.23
49947;BME280;35839;48.662;13.300;2022-08-21T14:56:49;97181.19;;;21.41;84.31
49947;BME280;35839;48.662;13.300;2022-08-21T14:59:16;97181.38;;;21.39;87.76
49947;BME280;35839;48.662;13.300;2022-08-21T15:01:42;97179.78;;;21.38;86.41
49947;BME280;35839;48.662;13.300;2022-08-21T15:04:07;97175.56;;;21.49;86.91
49947;BME280;35839;48.662;13.300;2022-08-21T15:06:32;97181.38;;;21.58;88.65
49947;BME280;35839;48.662;13.300;2022-08-21T15:08:58;97180.75;;;21.74;88.51
49947;BME280;35839;48.662;13.300;2022-08-21T15:11:24;97179.56;;;21.70;86.06
49947;BME280;35839;48.662;13.300;2022-08-21T15:13:55;97169.50;;;22.14;86.14
49947;BME280;35839;48.662;13.300;2022-08-21T15:16:21;97170.31;;;22.45;85.88
49947;BME280;35839;48.662;13.300;2022-08-21T15:18:47;97167.28;;;22.77;83.23
49947;BME280;35839;48.662;13.300;2022-08-21T15:21:13;97173.28;;;22.84;79.22
49947;BME280;35839;48.662;13.300;2022-08-21T15:23:38;97176.00;;;24.05;89.54
49947;BME280;35839;48.662;13.300;2022-08-21T15:26:04;97162.97;;;26.83;74.25
49947;BME280;35839;48.662;13.300;2022-08-21T15:28:29;97163.72;;;28.25;65.16
49947;BME280;35839;48.662;13.300;2022-08-21T15:30:55;97170.34;;;29.15;59.98
49947;BME280;35839;48.662;13.300;2022-08-21T15:33:20;97169.22;;;29.26;56.66
49947;BME280;35839;48.662;13.300;2022-08-21T15:35:47;97166.00;;;29.79;53.13
49947;BME280;35839;48.662;13.300;2022-08-21T15:38:14;97168.69;;;30.29;49.31
49947;BME280;35839;48.662;13.300;2022-08-21T15:40:41;97166.19;;;29.93;47.15
49947;BME280;35839;48.662;13.300;2022-08-21T15:43:35;97163.81;;;30.31;44.40
49947;BME280;35839;48.662;13.300;2022-08-21T15:46:00;97163.59;;;30.80;47.30
49947;BME280;35839;48.662;13.300;2022-08-21T15:48:26;97167.19;;;27.22;50.88
49947;BME280;35839;48.662;13.300;2022-08-21T15:50:51;97163.41;;;27.91;48.16
49947;BME280;35839;48.662;13.300;2022-08-21T15:53:17;97158.50;;;27.83;49.25
49947;BME280;35839;48.662;13.300;2022-08-21T15:55:42;97155.91;;;28.49;49.71
49947;BME280;35839;48.662;13.300;2022-08-21T15:58:12;97144.38;;;27.29;52.86
49947;BME280;35839;48.662;13.300;2022-08-21T16:00:39;97142.88;;;28.92;47.36
49947;BME280;35839;48.662;13.300;2022-08-21T16:03:05;97146.84;;;31.07;47.36
49947;BME280;35839;48.662;13.300;2022-08-21T16:05:32;97152.28;;;30.49;41.96
49947;BME280;35839;48.662;13.300;2022-08-21T16:07:58;97148.16;;;29.33;45.01
49947;BME280;35839;48.662;13.300;2022-08-21T16:10:24;97143.69;;;31.00;42.65
49947;BME280;35839;48.662;13.300;2022-08-21T16:12:55;97146.25;;;31.97;39.40
49947;BME280;35839;48.662;13.300;2022-08-21T16:15:22;97145.06;;;32.03;39.94
49947;BME280;35839;48.662;13.300;2022-08-21T16:17:48;97144.19;;;30.49;38.88
49947;BME280;35839;48.662;13.300;2022-08-21T16:20:21;97145.84;;;31.65;38.75
49947;BME280;35839;48.662;13.300;2022-08-21T16:22:47;97147.69;;;32.73;38.28
49947;BME280;35839;48.662;13.300;2022-08-21T16:25:13;97146.53;;;33.07;37.22
49947;BME280;35839;48.662;13.300;2022-08-21T16:27:40;97155.59;;;32.70;37.14
49947;BME280;35839;48.662;13.300;2022-08-21T16:30:07;97148.50;;;33.71;36.81
49947;BME280;35839;48.662;13.300;2022-08-21T16:32:33;97154.44;;;31.91;36.59
49947;BME280;35839;48.662;13.300;2022-08-21T16:34:59;97149.69;;;31.16;36.70
49947;BME280;35839;48.662;13.300;2022-08-21T16:37:25;97146.44;;;31.62;37.36
49947;BME280;35839;48.662;13.300;2022-08-21T16:39:50;97137.84;;;31.36;38.27
49947;BME280;35839;48.662;13.300;2022-08-21T16:42:18;97140.50;;;31.79;36.74
49947;BME280;35839;48.662;13.300;2022-08-21T16:44:46;97139.50;;;31.75;37.78
49947;BME280;35839;48.662;13.300;2022-08-21T16:47:11;97134.41;;;32.25;38.46
49947;BME280;35839;48.662;13.300;2022-08-21T16:49:37;97134.81;;;30.02;40.46
49947;BME280;35839;48.662;13.300;2022-08-21T16:52:03;97131.38;;;29.47;41.61
49947;BME280;35839;48.662;13.300;2022-08-21T16:54:30;97125.59;;;29.09;42.06
49947;BME280;35839;48.662;13.300;2022-08-21T16:56:56;97131.88;;;28.78;44.28
49947;BME280;35839;48.662;13.300;2022-08-21T16:59:22;97116.19;;;28.96;44.36
49947;BME280;35839;48.662;13.300;2022-08-21T17:01:47;97125.75;;;28.16;45.57
49947;BME280;35839;48.662;13.300;2022-08-21T17:04:13;97120.25;;;27.55;47.07
49947;BME280;35839;48.662;13.300;2022-08-21T17:06:38;97111.94;;;26.83;48.98
49947;BME280;35839;48.662;13.300;2022-08-21T17:09:04;97112.72;;;25.77;54.26
49947;BME280;35839;48.662;13.300;2022-08-21T17:11:33;97114.00;;;26.01;53.45
49947;BME280;35839;48.662;13.300;2022-08-21T17:14:00;97106.31;;;25.29;56.00
49947;BME280;35839;48.662;13.300;2022-08-21T17:16:27;97124.00;;;24.86;58.52
49947;BME280;35839;48.662;13.300;2022-08-21T17:18:53;97117.63;;;24.92;58.70
49947;BME280;35839;48.662;13.300;2022-08-21T17:21:19;97126.31;;;24.43;61.12
49947;BME280;35839;48.662;13.300;2022-08-21T17:23:45;97105.41;;;24.57;61.15
49947;BME280;35839;48.662;13.300;2022-08-21T17:26:12;97126.16;;;24.33;65.95
49947;BME280;35839;48.662;13.300;2022-08-21T17:28:37;97117.81;;;23.67;70.21
49947;BME280;35839;48.662;13.300;2022-08-21T17:31:03;97124.06;;;23.44;71.90
49947;BME280;35839;48.662;13.300;2022-08-21T17:33:35;97128.41;;;22.81;75.17
49947;BME280;35839;48.662;13.300;2022-08-21T17:36:04;97125.38;;;22.65;78.12
49947;BME280;35839;48.662;13.300;2022-08-21T17:38:29;97126.09;;;22.49;81.11
49947;BME280;35839;48.662;13.300;2022-08-21T17:40:55;97122.94;;;22.87;78.88
49947;BME280;35839;48.662;13.300;2022-08-21T17:43:22;97132.59;;;22.29;80.88
49947;BME280;35839;48.662;13.300;2022-08-21T17:45:48;97135.41;;;22.04;90.00
49947;BME280;35839;48.662;13.300;2022-08-21T17:48:16;97127.38;;;22.35;90.43
49947;BME280;35839;48.662;13.300;2022-08-21T17:50:41;97123.88;;;22.22;88.25
49947;BME280;35839;48.662;13.300;2022-08-21T17:53:07;97131.75;;;22.17;91.54
49947;BME280;35839;48.662;13.300;2022-08-21T17:55:37;97130.25;;;21.79;92.83
49947;BME280;35839;48.662;13.300;2022-08-21T17:58:02;97130.59;;;21.71;92.68
49947;BME280;35839;48.662;13.300;2022-08-21T18:00:29;97134.56;;;21.32;100.00
49947;BME280;35839;48.662;13.300;2022-08-21T18:03:12;97138.41;;;21.36;96.53
49947;BME280;35839;48.662;13.300;2022-08-21T18:05:42;97141.63;;;21.26;96.48
49947;BME280;35839;48.662;13.300;2022-08-21T18:08:07;97133.47;;;21.21;93.80
49947;BME280;35839;48.662;13.300;2022-08-21T18:10:33;97142.66;;;21.07;95.95
49947;BME280;35839;48.662;13.300;2022-08-21T18:13:00;97147.50;;;20.98;98.28
49947;BME280;35839;48.662;13.300;2022-08-21T18:15:28;97148.56;;;20.90;97.15
49947;BME280;35839;48.662;13.300;2022-08-21T18:17:54;97156.94;;;20.75;100.00
49947;BME280;35839;48.662;13.300;2022-08-21T18:20:22;97147.53;;;20.73;100.00
49947;BME280;35839;48.662;13.300;2022-08-21T18:22:48;97161.38;;;20.31;100.00
49947;BME280;35839;48.662;13.300;2022-08-21T18:25:14;97161.84;;;20.28;100.00
49947;BME280;35839;48.662;13.300;2022-08-21T18:27:41;97160.38;;;20.07;100.00
49947;BME280;35839;48.662;13.300;2022-08-21T18:30:11;97160.00;;;19.97;100.00
49947;BME280;35839;48.662;13.300;2022-08-21T18:32:38;97159.97;;;20.04;100.00
49947;BME280;35839;48.662;13.300;2022-08-21T18:35:05;97159.31;;;20.08;100.00
49947;BME280;35839;48.662;13.300;2022-08-21T18:37:31;97160.38;;;20.07;100.00
49947;BME280;35839;48.662;13.300;2022-08-21T18:39:57;97164.59;;;19.83;100.00
49947;BME280;35839;48.662;13.300;2022-08-21T18:42:23;97173.47;;;19.70;100.00
49947;BME280;35839;48.662;13.300;2022-08-21T18:44:51;97170.56;;;19.27;100.00
49947;BME280;35839;48.662;13.300;2022-08-21T18:47:23;97171.78;;;19.37;100.00
49947;BME280;35839;48.662;13.300;2022-08-21T18:49:50;97169.38;;;19.16;100.00
49947;BME280;35839;48.662;13.300;2022-08-21T18:52:16;97184.94;;;19.06;100.00
49947;BME280;35839;48.662;13.300;2022-08-21T18:54:41;97182.88;;;19.21;100.00
49947;BME280;35839;48.662;13.300;2022-08-21T18:57:07;97181.91;;;18.75;100.00
49947;BME280;35839;48.662;13.300;2022-08-21T18:59:32;97187.41;;;19.01;100.00
49947;BME280;35839;48.662;13.300;2022-08-21T19:01:58;97188.03;;;18.89;100.00
49947;BME280;35839;48.662;13.300;2022-08-21T19:04:25;97189.50;;;18.65;100.00
49947;BME280;35839;48.662;13.300;2022-08-21T19:06:50;97181.75;;;18.50;100.00
49947;BME280;35839;48.662;13.300;2022-08-21T19:09:16;97187.41;;;18.74;100.00
49947;BME280;35839;48.662;13.300;2022-08-21T19:11:41;97191.09;;;18.66;100.00
49947;BME280;35839;48.662;13.300;2022-08-21T19:14:10;97199.47;;;18.83;100.00
49947;BME280;35839;48.662;13.300;2022-08-21T19:16:40;97190.72;;;18.69;100.00
49947;BME280;35839;48.662;13.300;2022-08-21T19:19:07;97196.44;;;18.80;100.00